sensor_id;sensor_type;location;lat;lon;timestamp;temperature;humidity
56512;DHT22;42408;53.238;5.686;2023-03-14T00:01:17;10.50;99.90
56512;DHT22;42408;53.238;5.686;2023-03-14T00:03:43;10.50;99.90
56512;DHT22;42408;53.238;5.686;2023-03-14T00:06:10;10.50;99.90
56512;DHT22;42408;53.238;5.686;2023-03-14T00:08:35;10.50;99.90
56512;DHT22;42408;53.238;5.686;2023-03-14T00:11:10;10.50;99.90
56512;DHT22;42408;53.238;5.686;2023-03-14T00:13:36;10.60;99.90
56512;DHT22;42408;53.238;5.686;2023-03-14T00:16:06;10.50;99.90
56512;DHT22;42408;53.238;5.686;2023-03-14T00:18:32;10.40;99.90
56512;DHT22;42408;53.238;5.686;2023-03-14T00:21:02;10.40;99.90
56512;DHT22;42408;53.238;5.686;2023-03-14T00:23:30;10.40;99.90
56512;DHT22;42408;53.238;5.686;2023-03-14T00:26:04;10.40;99.90
56512;DHT22;42408;53.238;5.686;2023-03-14T00:28:30;10.40;99.90
56512;DHT22;42408;53.238;5.686;2023-03-14T00:30:55;10.30;99.90
56512;DHT22;42408;53.238;5.686;2023-03-14T00:33:21;10.30;99.90
56512;DHT22;42408;53.238;5.686;2023-03-14T00:35:55;10.30;99.90
56512;DHT22;42408;53.238;5.686;2023-03-14T00:38:21;10.20;99.90
56512;DHT22;42408;53.238;5.686;2023-03-14T00:40:47;10.10;99.90
56512;DHT22;42408;53.238;5.686;2023-03-14T00:43:13;10.10;99.90
56512;DHT22;42408;53.238;5.686;2023-03-14T00:45:38;10.10;99.90
56512;DHT22;42408;53.238;5.686;2023-03-14T00:48:04;10.00;99.90
56512;DHT22;42408;53.238;5.686;2023-03-14T00:50:30;10.00;99.90
56512;DHT22;42408;53.238;5.686;2023-03-14T00:52:55;10.00;99.90
56512;DHT22;42408;53.238;5.686;2023-03-14T00:55:21;10.10;99.90
56512;DHT22;42408;53.238;5.686;2023-03-14T00:57:46;10.10;99.90
56512;DHT22;42408;53.238;5.686;2023-03-14T01:00:13;10.10;99.90
56512;DHT22;42408;53.238;5.686;2023-03-14T01:02:38;10.10;99.90
56512;DHT22;42408;53.238;5.686;2023-03-14T01:05:05;10.10;99.90
56512;DHT22;42408;53.238;5.686;2023-03-14T01:07:30;10.10;99.90
56512;DHT22;42408;53.238;5.686;2023-03-14T01:09:56;10.10;99.90
56512;DHT22;42408;53.238;5.686;2023-03-14T01:12:22;10.00;99.90
56512;DHT22;42408;53.238;5.686;2023-03-14T01:14:47;10.00;99.90
56512;DHT22;42408;53.238;5.686;2023-03-14T01:17:13;10.00;99.90
56512;DHT22;42408;53.238;5.686;2023-03-14T01:19:39;10.00;99.90
56512;DHT22;42408;53.238;5.686;2023-03-14T01:22:04;9.90;99.90
56512;DHT22;42408;53.238;5.686;2023-03-14T01:24:30;9.90;99.90
56512;DHT22;42408;53.238;5.686;2023-03-14T01:26:56;9.90;99.90
56512;DHT22;42408;53.238;5.686;2023-03-14T01:29:21;9.80;99.90
56512;DHT22;42408;53.238;5.686;2023-03-14T01:31:47;9.90;99.90
56512;DHT22;42408;53.238;5.686;2023-03-14T01:34:13;9.80;99.90
56512;DHT22;42408;53.238;5.686;2023-03-14T01:36:38;9.80;99.90
56512;DHT22;42408;53.238;5.686;2023-03-14T01:39:04;9.90;99.90
56512;DHT22;42408;53.238;5.686;2023-03-14T01:41:31;9.80;99.90
56512;DHT22;42408;53.238;5.686;2023-03-14T01:43:57;9.70;99.90
56512;DHT22;42408;53.238;5.686;2023-03-14T01:46:41;9.80;99.90
56512;DHT22;42408;53.238;5.686;2023-03-14T01:51:49;9.80;99.90
56512;DHT22;42408;53.238;5.686;2023-03-14T01:56:46;9.70;99.90
56512;DHT22;42408;53.238;5.686;2023-03-14T01:59:12;9.70;99.90
56512;DHT22;42408;53.238;5.686;2023-03-14T02:01:41;9.70;99.90
56512;DHT22;42408;53.238;5.686;2023-03-14T02:04:08;9.70;99.90
56512;DHT22;42408;53.238;5.686;2023-03-14T02:06:56;9.70;99.90
56512;DHT22;42408;53.238;5.686;2023-03-14T02:09:23;9.60;99.90
56512;DHT22;42408;53.238;5.686;2023-03-14T02:11:50;9.70;99.90
56512;DHT22;42408;53.238;5.686;2023-03-14T02:14:25;9.70;99.90
56512;DHT22;42408;53.238;5.686;2023-03-14T02:16:53;9.50;99.90
56512;DHT22;42408;53.238;5.686;2023-03-14T02:19:38;9.60;99.90
56512;DHT22;42408;53.238;5.686;2023-03-14T02:22:12;9.50;99.90
56512;DHT22;42408;53.238;5.686;2023-03-14T02:27:21;9.50;99.90
56512;DHT22;42408;53.238;5.686;2023-03-14T02:29:54;9.50;99.90
56512;DHT22;42408;53.238;5.686;2023-03-14T02:32:24;9.40;99.90
56512;DHT22;42408;53.238;5.686;2023-03-14T02:34:54;9.60;99.90
56512;DHT22;42408;53.238;5.686;2023-03-14T02:37:22;9.40;99.90
56512;DHT22;42408;53.238;5.686;2023-03-14T02:39:49;9.50;99.90
56512;DHT22;42408;53.238;5.686;2023-03-14T02:42:15;9.30;99.90
56512;DHT22;42408;53.238;5.686;2023-03-14T02:44:53;9.40;99.90
56512;DHT22;42408;53.238;5.686;2023-03-14T02:47:26;9.40;99.90
56512;DHT22;42408;53.238;5.686;2023-03-14T02:49:55;9.40;99.90
56512;DHT22;42408;53.238;5.686;2023-03-14T02:52:23;9.40;99.90
56512;DHT22;42408;53.238;5.686;2023-03-14T02:54:48;9.30;99.90
56512;DHT22;42408;53.238;5.686;2023-03-14T02:57:14;9.40;99.90
56512;DHT22;42408;53.238;5.686;2023-03-14T02:59:40;9.40;99.90
56512;DHT22;42408;53.238;5.686;2023-03-14T03:02:05;9.40;99.90
56512;DHT22;42408;53.238;5.686;2023-03-14T03:04:32;9.40;99.90
56512;DHT22;42408;53.238;5.686;2023-03-14T03:06:57;9.30;99.90
56512;DHT22;42408;53.238;5.686;2023-03-14T03:09:23;9.40;99.90
56512;DHT22;42408;53.238;5.686;2023-03-14T03:11:49;9.40;99.90
56512;DHT22;42408;53.238;5.686;2023-03-14T03:14:14;9.30;99.90
56512;DHT22;42408;53.238;5.686;2023-03-14T03:16:40;9.40;99.90
56512;DHT22;42408;53.238;5.686;2023-03-14T03:19:06;9.30;99.90
56512;DHT22;42408;53.238;5.686;2023-03-14T03:21:31;9.30;99.90
56512;DHT22;42408;53.238;5.686;2023-03-14T03:23:57;9.30;99.90
56512;DHT22;42408;53.238;5.686;2023-03-14T03:26:23;9.40;99.90
56512;DHT22;42408;53.238;5.686;2023-03-14T03:28:51;9.30;99.90
56512;DHT22;42408;53.238;5.686;2023-03-14T03:31:17;9.30;99.90
56512;DHT22;42408;53.238;5.686;2023-03-14T03:33:43;9.30;99.90
56512;DHT22;42408;53.238;5.686;2023-03-14T03:36:09;9.40;99.90
56512;DHT22;42408;53.238;5.686;2023-03-14T03:38:35;9.40;99.90
56512;DHT22;42408;53.238;5.686;2023-03-14T03:41:07;9.40;99.90
56512;DHT22;42408;53.238;5.686;2023-03-14T03:43:33;9.40;99.90
56512;DHT22;42408;53.238;5.686;2023-03-14T03:46:02;9.40;99.90
56512;DHT22;42408;53.238;5.686;2023-03-14T03:48:28;9.40;99.90
56512;DHT22;42408;53.238;5.686;2023-03-14T03:50:53;9.40;99.90
56512;DHT22;42408;53.238;5.686;2023-03-14T03:53:19;9.40;99.90
56512;DHT22;42408;53.238;5.686;2023-03-14T03:55:44;9.40;99.90
56512;DHT22;42408;53.238;5.686;2023-03-14T03:58:10;9.50;99.90
56512;DHT22;42408;53.238;5.686;2023-03-14T04:00:36;9.40;99.90
56512;DHT22;42408;53.238;5.686;2023-03-14T04:03:01;9.40;99.90
56512;DHT22;42408;53.238;5.686;2023-03-14T04:05:27;9.40;99.90
56512;DHT22;42408;53.238;5.686;2023-03-14T04:07:53;9.40;99.90
56512;DHT22;42408;53.238;5.686;2023-03-14T04:10:18;9.40;99.90
56512;DHT22;42408;53.238;5.686;2023-03-14T04:12:44;9.40;99.90
56512;DHT22;42408;53.238;5.686;2023-03-14T04:15:10;9.40;99.90
56512;DHT22;42408;53.238;5.686;2023-03-14T04:17:35;9.40;99.90
56512;DHT22;42408;53.238;5.686;2023-03-14T04:20:01;9.30;99.90
56512;DHT22;42408;53.238;5.686;2023-03-14T04:22:26;9.30;99.90
56512;DHT22;42408;53.238;5.686;2023-03-14T04:24:52;9.30;99.90
56512;DHT22;42408;53.238;5.686;2023-03-14T04:27:18;9.20;99.90
56512;DHT22;42408;53.238;5.686;2023-03-14T04:29:43;9.20;99.90
56512;DHT22;42408;53.238;5.686;2023-03-14T04:32:09;9.20;99.90
56512;DHT22;42408;53.238;5.686;2023-03-14T04:34:35;9.20;99.90
56512;DHT22;42408;53.238;5.686;2023-03-14T04:37:00;9.20;99.90
56512;DHT22;42408;53.238;5.686;2023-03-14T04:39:26;9.20;99.90
56512;DHT22;42408;53.238;5.686;2023-03-14T04:41:52;9.10;99.90
56512;DHT22;42408;53.238;5.686;2023-03-14T04:44:18;9.10;99.90
56512;DHT22;42408;53.238;5.686;2023-03-14T04:46:43;9.10;99.90
56512;DHT22;42408;53.238;5.686;2023-03-14T04:49:09;9.10;99.90
56512;DHT22;42408;53.238;5.686;2023-03-14T04:51:34;9.00;99.90
56512;DHT22;42408;53.238;5.686;2023-03-14T04:54:00;9.00;99.90
56512;DHT22;42408;53.238;5.686;2023-03-14T04:56:26;9.10;99.90
56512;DHT22;42408;53.238;5.686;2023-03-14T04:58:52;9.10;99.90
56512;DHT22;42408;53.238;5.686;2023-03-14T05:01:18;9.00;99.90
56512;DHT22;42408;53.238;5.686;2023-03-14T05:03:44;9.10;99.90
56512;DHT22;42408;53.238;5.686;2023-03-14T05:06:09;9.10;99.90
56512;DHT22;42408;53.238;5.686;2023-03-14T05:08:35;9.00;99.90
56512;DHT22;42408;53.238;5.686;2023-03-14T05:11:01;9.10;99.90
56512;DHT22;42408;53.238;5.686;2023-03-14T05:13:28;9.00;99.90
56512;DHT22;42408;53.238;5.686;2023-03-14T05:16:02;9.00;99.90
56512;DHT22;42408;53.238;5.686;2023-03-14T05:18:28;9.00;99.90
56512;DHT22;42408;53.238;5.686;2023-03-14T05:20:53;9.00;99.90
56512;DHT22;42408;53.238;5.686;2023-03-14T05:23:19;9.00;99.90
56512;DHT22;42408;53.238;5.686;2023-03-14T05:25:45;9.00;99.90
56512;DHT22;42408;53.238;5.686;2023-03-14T05:28:10;9.00;99.90
56512;DHT22;42408;53.238;5.686;2023-03-14T05:30:36;9.00;99.90
56512;DHT22;42408;53.238;5.686;2023-03-14T05:33:02;8.90;99.90
56512;DHT22;42408;53.238;5.686;2023-03-14T05:35:27;8.90;99.90
56512;DHT22;42408;53.238;5.686;2023-03-14T05:37:53;8.90;99.90
56512;DHT22;42408;53.238;5.686;2023-03-14T05:40:18;8.80;99.90
56512;DHT22;42408;53.238;5.686;2023-03-14T05:42:44;8.70;99.90
56512;DHT22;42408;53.238;5.686;2023-03-14T05:45:10;8.60;99.90
56512;DHT22;42408;53.238;5.686;2023-03-14T05:47:36;8.50;99.90
56512;DHT22;42408;53.238;5.686;2023-03-14T05:50:01;8.40;99.90
56512;DHT22;42408;53.238;5.686;2023-03-14T05:52:27;8.20;99.90
56512;DHT22;42408;53.238;5.686;2023-03-14T05:54:53;8.10;99.90
56512;DHT22;42408;53.238;5.686;2023-03-14T05:57:18;8.00;99.90
56512;DHT22;42408;53.238;5.686;2023-03-14T05:59:44;7.90;99.90
56512;DHT22;42408;53.238;5.686;2023-03-14T06:02:10;7.70;99.90
56512;DHT22;42408;53.238;5.686;2023-03-14T06:04:35;7.60;99.90
56512;DHT22;42408;53.238;5.686;2023-03-14T06:07:01;7.50;99.90
56512;DHT22;42408;53.238;5.686;2023-03-14T06:09:27;7.30;99.90
56512;DHT22;42408;53.238;5.686;2023-03-14T06:11:52;7.00;99.90
56512;DHT22;42408;53.238;5.686;2023-03-14T06:14:18;6.80;99.90
56512;DHT22;42408;53.238;5.686;2023-03-14T06:16:44;6.80;99.90
56512;DHT22;42408;53.238;5.686;2023-03-14T06:19:10;6.70;99.90
56512;DHT22;42408;53.238;5.686;2023-03-14T06:21:36;6.50;99.90
56512;DHT22;42408;53.238;5.686;2023-03-14T06:24:02;6.40;99.90
56512;DHT22;42408;53.238;5.686;2023-03-14T06:26:29;6.30;99.90
56512;DHT22;42408;53.238;5.686;2023-03-14T06:28:54;6.20;99.90
56512;DHT22;42408;53.238;5.686;2023-03-14T06:31:20;6.20;99.90
56512;DHT22;42408;53.238;5.686;2023-03-14T06:33:45;6.00;99.90
56512;DHT22;42408;53.238;5.686;2023-03-14T06:36:11;5.90;99.90
56512;DHT22;42408;53.238;5.686;2023-03-14T06:38:37;5.90;99.90
56512;DHT22;42408;53.238;5.686;2023-03-14T06:41:04;5.80;99.90
56512;DHT22;42408;53.238;5.686;2023-03-14T06:43:30;5.80;99.90
56512;DHT22;42408;53.238;5.686;2023-03-14T06:45:56;5.80;99.90
56512;DHT22;42408;53.238;5.686;2023-03-14T06:48:22;5.80;99.90
56512;DHT22;42408;53.238;5.686;2023-03-14T06:50:48;5.80;99.90
56512;DHT22;42408;53.238;5.686;2023-03-14T06:53:14;5.80;99.90
56512;DHT22;42408;53.238;5.686;2023-03-14T06:55:40;5.70;99.90
56512;DHT22;42408;53.238;5.686;2023-03-14T06:58:05;5.70;99.90
56512;DHT22;42408;53.238;5.686;2023-03-14T07:00:34;5.70;99.90
56512;DHT22;42408;53.238;5.686;2023-03-14T07:02:59;5.60;99.90
56512;DHT22;42408;53.238;5.686;2023-03-14T07:05:25;5.60;99.90
56512;DHT22;42408;53.238;5.686;2023-03-14T07:07:51;5.60;99.90
56512;DHT22;42408;53.238;5.686;2023-03-14T07:10:17;5.60;99.90
56512;DHT22;42408;53.238;5.686;2023-03-14T07:12:42;5.50;99.90
56512;DHT22;42408;53.238;5.686;2023-03-14T07:15:08;5.50;99.90
56512;DHT22;42408;53.238;5.686;2023-03-14T07:17:34;5.50;99.90
56512;DHT22;42408;53.238;5.686;2023-03-14T07:20:00;5.50;99.90
56512;DHT22;42408;53.238;5.686;2023-03-14T07:22:26;5.50;99.90
56512;DHT22;42408;53.238;5.686;2023-03-14T07:24:52;5.60;99.90
56512;DHT22;42408;53.238;5.686;2023-03-14T07:27:17;5.60;99.90
56512;DHT22;42408;53.238;5.686;2023-03-14T07:29:43;5.60;99.90
56512;DHT22;42408;53.238;5.686;2023-03-14T07:32:09;5.70;99.90
56512;DHT22;42408;53.238;5.686;2023-03-14T07:34:35;5.70;99.90
56512;DHT22;42408;53.238;5.686;2023-03-14T07:37:00;5.70;99.90
56512;DHT22;42408;53.238;5.686;2023-03-14T07:39:26;5.60;99.90
56512;DHT22;42408;53.238;5.686;2023-03-14T07:41:52;5.60;99.90
56512;DHT22;42408;53.238;5.686;2023-03-14T07:44:17;5.70;99.90
56512;DHT22;42408;53.238;5.686;2023-03-14T07:46:43;5.70;99.90
56512;DHT22;42408;53.238;5.686;2023-03-14T07:49:09;5.80;99.90
56512;DHT22;42408;53.238;5.686;2023-03-14T07:51:34;5.80;99.90
56512;DHT22;42408;53.238;5.686;2023-03-14T07:54:00;5.90;99.90
56512;DHT22;42408;53.238;5.686;2023-03-14T07:56:26;5.90;99.90
56512;DHT22;42408;53.238;5.686;2023-03-14T07:58:52;6.00;99.90
56512;DHT22;42408;53.238;5.686;2023-03-14T08:01:17;6.00;99.90
56512;DHT22;42408;53.238;5.686;2023-03-14T08:03:43;6.10;99.90
56512;DHT22;42408;53.238;5.686;2023-03-14T08:06:09;6.10;99.90
56512;DHT22;42408;53.238;5.686;2023-03-14T08:08:34;6.20;99.90
56512;DHT22;42408;53.238;5.686;2023-03-14T08:11:05;6.30;99.90
56512;DHT22;42408;53.238;5.686;2023-03-14T08:13:31;6.30;99.90
56512;DHT22;42408;53.238;5.686;2023-03-14T08:15:57;6.40;99.90
56512;DHT22;42408;53.238;5.686;2023-03-14T08:18:22;6.50;99.90
56512;DHT22;42408;53.238;5.686;2023-03-14T08:20:48;6.60;99.90
56512;DHT22;42408;53.238;5.686;2023-03-14T08:23:14;6.60;99.90
56512;DHT22;42408;53.238;5.686;2023-03-14T08:25:39;6.60;99.90
56512;DHT22;42408;53.238;5.686;2023-03-14T08:28:05;6.70;99.90
56512;DHT22;42408;53.238;5.686;2023-03-14T08:30:31;6.60;99.90
56512;DHT22;42408;53.238;5.686;2023-03-14T08:32:57;6.50;99.90
56512;DHT22;42408;53.238;5.686;2023-03-14T08:35:24;6.40;99.90
56512;DHT22;42408;53.238;5.686;2023-03-14T08:37:50;6.30;99.90
56512;DHT22;42408;53.238;5.686;2023-03-14T08:40:17;6.30;99.90
56512;DHT22;42408;53.238;5.686;2023-03-14T08:42:43;6.40;99.90
56512;DHT22;42408;53.238;5.686;2023-03-14T08:45:11;6.40;99.90
56512;DHT22;42408;53.238;5.686;2023-03-14T08:47:37;6.40;99.90
56512;DHT22;42408;53.238;5.686;2023-03-14T08:50:04;6.50;99.90
56512;DHT22;42408;53.238;5.686;2023-03-14T08:52:30;6.50;99.90
56512;DHT22;42408;53.238;5.686;2023-03-14T08:54:57;6.50;99.90
56512;DHT22;42408;53.238;5.686;2023-03-14T08:57:22;6.60;99.90
56512;DHT22;42408;53.238;5.686;2023-03-14T08:59:53;6.60;99.90
56512;DHT22;42408;53.238;5.686;2023-03-14T09:02:20;6.60;99.90
56512;DHT22;42408;53.238;5.686;2023-03-14T09:04:46;6.70;99.90
56512;DHT22;42408;53.238;5.686;2023-03-14T09:07:11;6.80;99.90
56512;DHT22;42408;53.238;5.686;2023-03-14T09:09:37;6.80;99.90
56512;DHT22;42408;53.238;5.686;2023-03-14T09:12:03;6.90;99.90
56512;DHT22;42408;53.238;5.686;2023-03-14T09:14:30;7.00;99.90
56512;DHT22;42408;53.238;5.686;2023-03-14T09:16:55;7.00;99.90
56512;DHT22;42408;53.238;5.686;2023-03-14T09:19:21;7.00;99.90
56512;DHT22;42408;53.238;5.686;2023-03-14T09:21:47;6.90;99.90
56512;DHT22;42408;53.238;5.686;2023-03-14T09:24:12;6.90;99.90
56512;DHT22;42408;53.238;5.686;2023-03-14T09:26:38;7.10;99.90
56512;DHT22;42408;53.238;5.686;2023-03-14T09:29:04;7.10;99.90
56512;DHT22;42408;53.238;5.686;2023-03-14T09:31:30;7.20;99.90
56512;DHT22;42408;53.238;5.686;2023-03-14T09:33:56;7.30;99.90
56512;DHT22;42408;53.238;5.686;2023-03-14T09:36:21;7.30;99.90
56512;DHT22;42408;53.238;5.686;2023-03-14T09:38:47;7.40;99.90
56512;DHT22;42408;53.238;5.686;2023-03-14T09:44:06;7.60;99.90
56512;DHT22;42408;53.238;5.686;2023-03-14T09:46:36;7.70;99.90
56512;DHT22;42408;53.238;5.686;2023-03-14T09:49:09;7.90;99.90
56512;DHT22;42408;53.238;5.686;2023-03-14T09:51:36;8.00;99.90
56512;DHT22;42408;53.238;5.686;2023-03-14T09:54:03;8.20;99.90
56512;DHT22;42408;53.238;5.686;2023-03-14T09:56:32;8.40;99.90
56512;DHT22;42408;53.238;5.686;2023-03-14T09:59:03;8.60;99.90
56512;DHT22;42408;53.238;5.686;2023-03-14T10:01:31;8.70;99.90
56512;DHT22;42408;53.238;5.686;2023-03-14T10:04:10;9.00;99.90
56512;DHT22;42408;53.238;5.686;2023-03-14T10:06:38;8.90;99.90
56512;DHT22;42408;53.238;5.686;2023-03-14T10:09:04;8.90;99.90
56512;DHT22;42408;53.238;5.686;2023-03-14T10:11:31;8.90;99.90
56512;DHT22;42408;53.238;5.686;2023-03-14T10:14:05;8.60;99.90
56512;DHT22;42408;53.238;5.686;2023-03-14T10:16:34;8.50;99.90
56512;DHT22;42408;53.238;5.686;2023-03-14T10:19:10;8.50;99.90
56512;DHT22;42408;53.238;5.686;2023-03-14T10:21:38;8.50;99.90
56512;DHT22;42408;53.238;5.686;2023-03-14T10:26:48;8.70;99.90
56512;DHT22;42408;53.238;5.686;2023-03-14T10:29:14;8.80;99.90
56512;DHT22;42408;53.238;5.686;2023-03-14T10:32:06;8.90;99.90
56512;DHT22;42408;53.238;5.686;2023-03-14T10:34:37;8.90;99.90
56512;DHT22;42408;53.238;5.686;2023-03-14T10:37:14;8.80;99.90
56512;DHT22;42408;53.238;5.686;2023-03-14T10:39:46;8.70;99.90
56512;DHT22;42408;53.238;5.686;2023-03-14T10:42:22;8.60;99.90
56512;DHT22;42408;53.238;5.686;2023-03-14T10:44:55;8.50;99.90
56512;DHT22;42408;53.238;5.686;2023-03-14T10:47:23;8.60;99.90
56512;DHT22;42408;53.238;5.686;2023-03-14T10:49:50;8.70;99.90
56512;DHT22;42408;53.238;5.686;2023-03-14T10:54:53;8.90;99.90
56512;DHT22;42408;53.238;5.686;2023-03-14T10:57:19;8.90;99.90
56512;DHT22;42408;53.238;5.686;2023-03-14T10:59:45;9.00;99.90
56512;DHT22;42408;53.238;5.686;2023-03-14T11:07:48;9.40;99.90
56512;DHT22;42408;53.238;5.686;2023-03-14T11:10:33;9.60;99.90
56512;DHT22;42408;53.238;5.686;2023-03-14T11:13:52;9.60;99.90
56512;DHT22;42408;53.238;5.686;2023-03-14T11:19:32;9.60;99.90
56512;DHT22;42408;53.238;5.686;2023-03-14T11:27:48;9.80;99.90
56512;DHT22;42408;53.238;5.686;2023-03-14T11:30:52;9.70;99.90
56512;DHT22;42408;53.238;5.686;2023-03-14T11:33:14;9.60;99.90
56512;DHT22;42408;53.238;5.686;2023-03-14T11:36:04;9.40;99.90
56512;DHT22;42408;53.238;5.686;2023-03-14T11:38:52;9.50;99.90
56512;DHT22;42408;53.238;5.686;2023-03-14T11:41:38;9.60;99.90
56512;DHT22;42408;53.238;5.686;2023-03-14T11:44:10;9.70;99.90
56512;DHT22;42408;53.238;5.686;2023-03-14T11:47:09;9.70;99.90
56512;DHT22;42408;53.238;5.686;2023-03-14T11:49:45;9.50;99.90
56512;DHT22;42408;53.238;5.686;2023-03-14T11:54:59;9.50;99.90
56512;DHT22;42408;53.238;5.686;2023-03-14T11:57:25;9.50;99.90
56512;DHT22;42408;53.238;5.686;2023-03-14T12:00:02;9.40;99.90
56512;DHT22;42408;53.238;5.686;2023-03-14T12:10:19;9.10;99.90
56512;DHT22;42408;53.238;5.686;2023-03-14T12:12:45;9.00;99.90
56512;DHT22;42408;53.238;5.686;2023-03-14T12:15:20;9.10;99.90
56512;DHT22;42408;53.238;5.686;2023-03-14T12:17:46;9.30;99.90
56512;DHT22;42408;53.238;5.686;2023-03-14T12:20:20;9.30;99.90
56512;DHT22;42408;53.238;5.686;2023-03-14T12:22:49;9.40;99.90
56512;DHT22;42408;53.238;5.686;2023-03-14T12:25:17;9.40;99.90
56512;DHT22;42408;53.238;5.686;2023-03-14T12:27:49;9.50;99.90
56512;DHT22;42408;53.238;5.686;2023-03-14T12:30:40;9.70;99.90
56512;DHT22;42408;53.238;5.686;2023-03-14T12:35:42;10.00;99.90
56512;DHT22;42408;53.238;5.686;2023-03-14T12:43:32;9.60;99.90
56512;DHT22;42408;53.238;5.686;2023-03-14T12:48:44;9.50;99.90
56512;DHT22;42408;53.238;5.686;2023-03-14T12:51:19;9.60;99.90
56512;DHT22;42408;53.238;5.686;2023-03-14T12:54:09;9.60;99.90
56512;DHT22;42408;53.238;5.686;2023-03-14T12:59:33;9.70;99.90
56512;DHT22;42408;53.238;5.686;2023-03-14T13:04:34;9.70;99.90
56512;DHT22;42408;53.238;5.686;2023-03-14T13:07:02;9.80;99.90
56512;DHT22;42408;53.238;5.686;2023-03-14T13:12:16;9.60;99.90
56512;DHT22;42408;53.238;5.686;2023-03-14T13:14:48;9.60;99.90
56512;DHT22;42408;53.238;5.686;2023-03-14T13:17:18;9.80;99.90
56512;DHT22;42408;53.238;5.686;2023-03-14T13:19:51;9.80;99.90
56512;DHT22;42408;53.238;5.686;2023-03-14T13:22:35;9.70;99.90
56512;DHT22;42408;53.238;5.686;2023-03-14T13:25:10;9.70;99.90
56512;DHT22;42408;53.238;5.686;2023-03-14T13:27:36;9.70;99.90
56512;DHT22;42408;53.238;5.686;2023-03-14T13:30:26;9.90;99.90
56512;DHT22;42408;53.238;5.686;2023-03-14T13:32:53;10.10;99.90
56512;DHT22;42408;53.238;5.686;2023-03-14T13:35:26;10.10;99.90
56512;DHT22;42408;53.238;5.686;2023-03-14T13:37:56;10.10;99.90
56512;DHT22;42408;53.238;5.686;2023-03-14T13:40:43;10.10;99.90
56512;DHT22;42408;53.238;5.686;2023-03-14T13:43:20;9.90;99.90
56512;DHT22;42408;53.238;5.686;2023-03-14T13:45:55;9.80;99.90
56512;DHT22;42408;53.238;5.686;2023-03-14T13:48:22;10.00;99.90
56512;DHT22;42408;53.238;5.686;2023-03-14T13:51:10;10.00;99.90
56512;DHT22;42408;53.238;5.686;2023-03-14T13:53:51;10.10;99.90
56512;DHT22;42408;53.238;5.686;2023-03-14T13:56:19;10.10;99.90
56512;DHT22;42408;53.238;5.686;2023-03-14T13:58:46;10.20;99.90
56512;DHT22;42408;53.238;5.686;2023-03-14T14:01:27;10.20;99.90
56512;DHT22;42408;53.238;5.686;2023-03-14T14:03:57;10.20;99.90
56512;DHT22;42408;53.238;5.686;2023-03-14T14:06:36;10.10;99.90
56512;DHT22;42408;53.238;5.686;2023-03-14T14:09:15;10.20;99.90
56512;DHT22;42408;53.238;5.686;2023-03-14T14:14:25;10.10;99.90
56512;DHT22;42408;53.238;5.686;2023-03-14T14:16:53;10.00;99.90
56512;DHT22;42408;53.238;5.686;2023-03-14T14:19:21;9.80;99.90
56512;DHT22;42408;53.238;5.686;2023-03-14T14:21:48;9.80;99.90
56512;DHT22;42408;53.238;5.686;2023-03-14T14:24:15;9.80;99.90
56512;DHT22;42408;53.238;5.686;2023-03-14T14:26:47;9.80;99.90
56512;DHT22;42408;53.238;5.686;2023-03-14T14:29:34;9.90;99.90
56512;DHT22;42408;53.238;5.686;2023-03-14T14:32:17;9.90;99.90
56512;DHT22;42408;53.238;5.686;2023-03-14T14:34:59;10.00;99.90
56512;DHT22;42408;53.238;5.686;2023-03-14T14:37:27;10.00;99.90
56512;DHT22;42408;53.238;5.686;2023-03-14T14:39:59;10.10;99.90
56512;DHT22;42408;53.238;5.686;2023-03-14T14:42:34;10.00;99.90
56512;DHT22;42408;53.238;5.686;2023-03-14T14:45:04;10.00;99.90
56512;DHT22;42408;53.238;5.686;2023-03-14T14:47:32;10.00;99.90
56512;DHT22;42408;53.238;5.686;2023-03-14T14:50:04;10.00;99.90
56512;DHT22;42408;53.238;5.686;2023-03-14T14:52:39;10.00;99.90
56512;DHT22;42408;53.238;5.686;2023-03-14T14:55:12;10.20;99.90
56512;DHT22;42408;53.238;5.686;2023-03-14T14:57:41;10.10;99.90
56512;DHT22;42408;53.238;5.686;2023-03-14T15:00:24;10.10;99.90
56512;DHT22;42408;53.238;5.686;2023-03-14T15:02:59;9.90;99.90
56512;DHT22;42408;53.238;5.686;2023-03-14T15:05:32;9.90;99.90
56512;DHT22;42408;53.238;5.686;2023-03-14T15:08:01;9.70;99.90
56512;DHT22;42408;53.238;5.686;2023-03-14T15:10:26;9.60;99.90
56512;DHT22;42408;53.238;5.686;2023-03-14T15:12:53;9.40;99.90
56512;DHT22;42408;53.238;5.686;2023-03-14T15:15:18;9.20;99.90
56512;DHT22;42408;53.238;5.686;2023-03-14T15:17:44;9.00;99.90
56512;DHT22;42408;53.238;5.686;2023-03-14T15:20:12;8.80;99.90
56512;DHT22;42408;53.238;5.686;2023-03-14T15:22:39;8.60;99.90
56512;DHT22;42408;53.238;5.686;2023-03-14T15:25:05;8.60;99.90
56512;DHT22;42408;53.238;5.686;2023-03-14T15:27:32;8.60;99.90
56512;DHT22;42408;53.238;5.686;2023-03-14T15:29:58;8.60;99.90
56512;DHT22;42408;53.238;5.686;2023-03-14T15:32:25;8.60;99.90
56512;DHT22;42408;53.238;5.686;2023-03-14T15:34:54;8.70;99.90
56512;DHT22;42408;53.238;5.686;2023-03-14T15:37:20;8.70;99.90
56512;DHT22;42408;53.238;5.686;2023-03-14T15:39:47;8.70;99.90
56512;DHT22;42408;53.238;5.686;2023-03-14T15:42:12;8.70;99.90
56512;DHT22;42408;53.238;5.686;2023-03-14T15:44:39;8.70;99.90
56512;DHT22;42408;53.238;5.686;2023-03-14T15:47:05;8.70;99.90
56512;DHT22;42408;53.238;5.686;2023-03-14T15:49:31;8.60;99.90
56512;DHT22;42408;53.238;5.686;2023-03-14T15:51:58;8.60;99.90
56512;DHT22;42408;53.238;5.686;2023-03-14T15:54:24;8.60;99.90
56512;DHT22;42408;53.238;5.686;2023-03-14T15:56:54;8.50;99.90
56512;DHT22;42408;53.238;5.686;2023-03-14T15:59:21;8.60;99.90
56512;DHT22;42408;53.238;5.686;2023-03-14T16:01:46;8.50;99.90
56512;DHT22;42408;53.238;5.686;2023-03-14T16:04:14;8.50;99.90
56512;DHT22;42408;53.238;5.686;2023-03-14T16:06:39;8.40;99.90
56512;DHT22;42408;53.238;5.686;2023-03-14T16:09:06;8.40;99.90
56512;DHT22;42408;53.238;5.686;2023-03-14T16:11:32;8.30;99.90
56512;DHT22;42408;53.238;5.686;2023-03-14T16:13:58;8.20;99.90
56512;DHT22;42408;53.238;5.686;2023-03-14T16:16:23;8.20;99.90
56512;DHT22;42408;53.238;5.686;2023-03-14T16:18:49;8.20;99.90
56512;DHT22;42408;53.238;5.686;2023-03-14T16:21:17;8.20;99.90
56512;DHT22;42408;53.238;5.686;2023-03-14T16:23:44;8.30;99.90
56512;DHT22;42408;53.238;5.686;2023-03-14T16:26:16;8.20;99.90
56512;DHT22;42408;53.238;5.686;2023-03-14T16:28:42;8.00;99.90
56512;DHT22;42408;53.238;5.686;2023-03-14T16:31:14;7.90;99.90
56512;DHT22;42408;53.238;5.686;2023-03-14T16:33:41;7.70;99.90
56512;DHT22;42408;53.238;5.686;2023-03-14T16:36:09;7.70;99.90
56512;DHT22;42408;53.238;5.686;2023-03-14T16:38:38;7.70;99.90
56512;DHT22;42408;53.238;5.686;2023-03-14T16:43:31;7.50;99.90
56512;DHT22;42408;53.238;5.686;2023-03-14T16:45:59;7.30;99.90
56512;DHT22;42408;53.238;5.686;2023-03-14T16:48:26;7.20;99.90
56512;DHT22;42408;53.238;5.686;2023-03-14T16:50:52;7.10;99.90
56512;DHT22;42408;53.238;5.686;2023-03-14T16:53:18;7.10;99.90
56512;DHT22;42408;53.238;5.686;2023-03-14T16:55:44;7.00;99.90
56512;DHT22;42408;53.238;5.686;2023-03-14T16:58:10;6.80;99.90